createdAt,value
2023-05-19T00:00:10.439Z,4.23
2023-05-19T00:02:41.384Z,4.50
2023-05-19T00:05:10.889Z,4.73
2023-05-19T00:07:39.147Z,4.90
2023-05-19T00:10:06.946Z,4.67
2023-05-19T00:12:34.231Z,5.30
2023-05-19T00:15:01.500Z,3.70
2023-05-19T00:17:28.633Z,4.13
2023-05-19T00:19:55.754Z,4.83
2023-05-19T00:22:24.221Z,4.33
2023-05-19T00:24:51.377Z,4.07
2023-05-19T00:27:18.458Z,4.50
2023-05-19T00:29:45.565Z,4.50
2023-05-19T00:32:12.680Z,4.87
2023-05-19T00:34:39.820Z,4.50
2023-05-19T00:37:08.022Z,5.00
2023-05-19T00:39:36.578Z,4.80
2023-05-19T00:42:04.074Z,4.87
2023-05-19T00:44:31.220Z,5.27
2023-05-19T00:46:58.486Z,5.47
2023-05-19T00:49:25.713Z,5.23
2023-05-19T00:51:52.834Z,5.40
2023-05-19T00:54:21.028Z,4.87
2023-05-19T00:56:49.587Z,4.70
2023-05-19T00:59:16.701Z,5.37
2023-05-19T01:01:43.840Z,5.73
2023-05-19T01:04:11.736Z,4.90
2023-05-19T01:06:38.927Z,5.17
2023-05-19T01:09:06.103Z,4.70
2023-05-19T01:11:35.089Z,5.20
2023-05-19T01:14:03.650Z,4.73
2023-05-19T01:16:32.938Z,6.10
2023-05-19T01:19:02.030Z,4.67
2023-05-19T01:21:47.109Z,5.10
2023-05-19T01:24:24.902Z,6.23
2023-05-19T01:27:03.474Z,4.70
2023-05-19T01:29:41.275Z,5.27
2023-05-19T01:32:10.409Z,4.40
2023-05-19T01:34:39.766Z,5.50
2023-05-19T01:37:08.042Z,5.30
2023-05-19T01:39:36.088Z,4.80
2023-05-19T01:42:04.421Z,5.33
2023-05-19T01:44:32.458Z,5.10
2023-05-19T01:46:59.982Z,5.83
2023-05-19T01:49:28.481Z,4.40
2023-05-19T01:51:55.639Z,5.53
2023-05-19T01:54:22.789Z,5.40
2023-05-19T01:56:53.010Z,4.83
2023-05-19T01:59:27.148Z,5.10
2023-05-19T02:01:57.831Z,6.00
2023-05-19T02:04:29.196Z,4.90
2023-05-19T02:07:02.382Z,5.10
2023-05-19T02:09:35.440Z,6.20
2023-05-19T02:12:04.899Z,4.90
2023-05-19T02:14:34.420Z,5.07
2023-05-19T02:17:02.163Z,5.10
2023-05-19T02:19:31.069Z,5.47
2023-05-19T02:21:58.216Z,6.07
2023-05-19T02:24:27.222Z,5.93
2023-05-19T02:26:54.821Z,4.63
2023-05-19T02:29:21.959Z,5.53
2023-05-19T02:31:51.076Z,4.53
2023-05-19T02:34:19.401Z,5.53
2023-05-19T02:36:46.540Z,5.87
2023-05-19T02:39:13.670Z,6.53
2023-05-19T02:41:42.151Z,5.10
2023-05-19T02:44:09.749Z,4.87
2023-05-19T02:46:37.318Z,5.40
2023-05-19T02:49:04.490Z,4.80
2023-05-19T02:51:31.597Z,5.13
2023-05-19T02:53:58.772Z,6.80
2023-05-19T02:56:25.963Z,4.77
2023-05-19T02:58:54.451Z,5.50
2023-05-19T03:01:21.696Z,4.80
2023-05-19T03:03:49.098Z,6.03
2023-05-19T03:06:16.331Z,5.37
2023-05-19T03:08:43.433Z,4.50
2023-05-19T03:11:10.593Z,6.13
2023-05-19T03:13:37.734Z,5.00
2023-05-19T03:16:07.504Z,5.67
2023-05-19T03:18:34.813Z,5.50
2023-05-19T03:21:02.081Z,5.10
2023-05-19T03:23:29.235Z,5.43
2023-05-19T03:25:56.362Z,5.80
2023-05-19T03:28:23.700Z,6.00
2023-05-19T03:30:51.026Z,5.20
2023-05-19T03:33:22.795Z,5.00
2023-05-19T03:35:51.210Z,5.70
2023-05-19T03:38:18.387Z,4.60
2023-05-19T03:40:52.221Z,5.27
2023-05-19T03:43:19.361Z,4.87
2023-05-19T03:45:52.552Z,6.30
2023-05-19T03:48:43.940Z,4.70
2023-05-19T03:51:25.710Z,4.30
2023-05-19T03:53:56.200Z,6.70
2023-05-19T03:56:23.334Z,5.87
2023-05-19T03:58:50.524Z,5.17
2023-05-19T04:01:17.800Z,5.13
2023-05-19T04:03:46.367Z,5.43
2023-05-19T04:06:13.555Z,5.40
2023-05-19T04:08:40.687Z,6.13
2023-05-19T04:11:07.949Z,5.10
2023-05-19T04:13:36.307Z,5.03
2023-05-19T04:16:03.598Z,6.10
2023-05-19T04:18:30.712Z,5.73
2023-05-19T04:20:59.134Z,5.67
2023-05-19T04:23:26.248Z,5.73
2023-05-19T04:25:53.393Z,6.70
2023-05-19T04:28:20.753Z,5.33
2023-05-19T04:30:47.828Z,6.10
2023-05-19T04:33:15.102Z,4.93
2023-05-19T04:35:42.946Z,4.60
2023-05-19T04:38:12.889Z,5.17
2023-05-19T04:40:41.486Z,5.20
2023-05-19T04:43:08.942Z,5.00
2023-05-19T04:45:36.453Z,4.93
2023-05-19T04:48:04.982Z,4.53
2023-05-19T04:50:32.409Z,4.40
2023-05-19T04:53:00.618Z,3.90
2023-05-19T04:55:29.342Z,4.70
2023-05-19T04:57:56.488Z,3.90
2023-05-19T05:00:23.823Z,4.33
2023-05-19T05:02:58.742Z,4.30
2023-05-19T05:05:28.624Z,5.33
2023-05-19T05:07:56.097Z,4.67
2023-05-19T05:10:24.875Z,4.27
2023-05-19T05:12:53.764Z,3.73
2023-05-19T05:15:21.627Z,3.73
2023-05-19T05:17:50.753Z,3.80
2023-05-19T05:20:18.855Z,3.57
2023-05-19T05:22:46.799Z,3.47
2023-05-19T05:25:15.274Z,3.30
2023-05-19T05:27:43.238Z,4.00
2023-05-19T05:30:11.988Z,4.20
2023-05-19T05:32:39.343Z,4.27
2023-05-19T05:35:12.442Z,4.67
2023-05-19T05:37:40.383Z,3.40
2023-05-19T05:40:08.742Z,3.47
2023-05-19T05:42:36.272Z,3.57
2023-05-19T05:45:03.704Z,3.23
2023-05-19T05:47:33.631Z,3.10
2023-05-19T05:50:01.158Z,3.60
2023-05-19T05:52:30.860Z,3.20
2023-05-19T05:54:59.640Z,3.70
2023-05-19T05:57:26.773Z,3.37
2023-05-19T05:59:54.210Z,2.90
2023-05-19T06:02:21.840Z,3.40
2023-05-19T06:04:50.456Z,3.00
2023-05-19T06:07:17.786Z,3.40
2023-05-19T06:09:45.593Z,3.57
2023-05-19T06:12:12.848Z,2.93
2023-05-19T06:14:46.079Z,3.03
2023-05-19T06:17:33.476Z,3.27
2023-05-19T06:20:02.083Z,3.03
2023-05-19T06:22:29.475Z,3.00
2023-05-19T06:24:56.950Z,3.10
2023-05-19T06:27:24.267Z,2.80
2023-05-19T06:29:51.607Z,3.10
2023-05-19T06:32:19.768Z,2.50
2023-05-19T06:34:47.152Z,3.20
2023-05-19T06:37:16.626Z,3.27
2023-05-19T06:39:44.161Z,3.07
2023-05-19T06:42:11.332Z,3.50
2023-05-19T06:44:57.751Z,2.97
2023-05-19T06:47:27.476Z,2.87
2023-05-19T06:49:54.698Z,2.67
2023-05-19T06:52:25.366Z,3.37
2023-05-19T06:54:52.968Z,2.90
2023-05-19T06:57:20.105Z,2.90
2023-05-19T06:59:47.226Z,3.73
2023-05-19T07:02:15.152Z,3.40
2023-05-19T07:04:42.401Z,2.70
2023-05-19T07:07:10.352Z,3.57
2023-05-19T07:09:38.825Z,2.87
2023-05-19T07:12:06.291Z,2.93
2023-05-19T07:14:33.561Z,3.47
2023-05-19T07:17:00.734Z,2.93
2023-05-19T07:19:28.044Z,3.50
2023-05-19T07:21:55.206Z,2.80
2023-05-19T07:24:22.381Z,2.87
2023-05-19T07:26:50.838Z,2.40
2023-05-19T07:29:18.042Z,2.80
2023-05-19T07:31:45.148Z,2.97
2023-05-19T07:34:12.284Z,2.73
2023-05-19T07:36:39.343Z,3.37
2023-05-19T07:39:06.491Z,2.67
2023-05-19T07:41:34.444Z,2.57
2023-05-19T07:44:04.867Z,2.40
2023-05-19T07:46:32.079Z,3.10
2023-05-19T07:48:59.238Z,2.63
2023-05-19T07:51:26.600Z,2.17
2023-05-19T07:53:53.676Z,3.50
2023-05-19T07:56:20.780Z,2.47
2023-05-19T07:58:47.968Z,2.20
2023-05-19T08:01:16.404Z,2.77
2023-05-19T08:03:43.715Z,2.60
2023-05-19T08:06:10.914Z,2.37
2023-05-19T08:08:38.024Z,2.80
2023-05-19T08:11:05.235Z,5.30
2023-05-19T08:13:32.303Z,2.70
2023-05-19T08:15:59.531Z,2.60
2023-05-19T08:18:28.089Z,2.40
2023-05-19T08:20:55.228Z,2.43
2023-05-19T08:23:22.496Z,3.37
2023-05-19T08:25:49.605Z,2.70
2023-05-19T08:28:16.765Z,2.63
2023-05-19T08:30:43.905Z,2.50
2023-05-19T08:33:11.057Z,2.30
2023-05-19T08:35:39.594Z,2.57
2023-05-19T08:38:06.679Z,2.20
2023-05-19T08:40:34.218Z,2.40
2023-05-19T08:43:01.695Z,2.57
2023-05-19T08:45:28.896Z,1.87
2023-05-19T08:47:56.482Z,2.77
2023-05-19T08:50:24.887Z,3.03
2023-05-19T08:52:54.001Z,1.93
2023-05-19T08:55:26.414Z,2.17
2023-05-19T08:57:53.712Z,2.00
2023-05-19T09:00:21.069Z,2.17
2023-05-19T09:02:59.851Z,2.00
2023-05-19T09:05:33.912Z,2.60
2023-05-19T09:08:03.779Z,2.60
2023-05-19T09:10:30.879Z,2.40
2023-05-19T09:12:58.005Z,2.43
2023-05-19T09:15:27.034Z,2.60
2023-05-19T09:18:03.800Z,2.43
2023-05-19T09:20:31.196Z,2.30
2023-05-19T09:23:00.321Z,3.20
2023-05-19T09:25:28.806Z,2.40
2023-05-19T09:27:55.891Z,4.10
2023-05-19T09:30:24.439Z,2.50
2023-05-19T09:32:51.918Z,2.10
2023-05-19T09:35:19.288Z,2.17
2023-05-19T09:37:46.627Z,2.67
2023-05-19T09:40:14.568Z,2.23
2023-05-19T09:42:43.177Z,2.63
2023-05-19T09:45:10.562Z,2.70
2023-05-19T09:47:38.171Z,2.47
2023-05-19T09:50:05.997Z,2.50
2023-05-19T09:52:35.456Z,3.73
2023-05-19T09:55:02.837Z,6.00
2023-05-19T09:57:33.273Z,2.33
2023-05-19T10:00:03.264Z,2.20
2023-05-19T10:02:32.102Z,3.07
2023-05-19T10:04:59.366Z,2.10
2023-05-19T10:07:26.744Z,2.37
2023-05-19T10:09:56.118Z,1.97
2023-05-19T10:12:24.820Z,2.37
2023-05-19T10:14:52.248Z,2.10
2023-05-19T10:17:20.869Z,6.97
2023-05-19T10:19:48.416Z,2.90
2023-05-19T10:22:15.600Z,3.07
2023-05-19T10:24:42.720Z,2.00
2023-05-19T10:27:12.211Z,2.63
2023-05-19T10:29:41.317Z,2.40
2023-05-19T10:32:11.063Z,2.58
2023-05-19T10:34:55.801Z,1.95
2023-05-19T10:37:26.291Z,2.40
2023-05-19T10:39:53.776Z,2.50
2023-05-19T10:42:26.342Z,5.43
2023-05-19T10:44:59.049Z,1.95
2023-05-19T10:47:26.552Z,2.83
2023-05-19T10:49:55.214Z,2.30
2023-05-19T10:52:22.720Z,2.63
2023-05-19T10:54:49.830Z,2.28
2023-05-19T10:57:17.039Z,1.95
2023-05-19T10:59:44.489Z,2.38
2023-05-19T11:02:12.140Z,4.45
2023-05-19T11:04:39.816Z,3.22
2023-05-19T11:07:09.358Z,2.60
2023-05-19T11:09:41.103Z,2.10
2023-05-19T11:12:08.832Z,4.00
2023-05-19T11:14:35.928Z,2.33
2023-05-19T11:17:03.231Z,2.17
2023-05-19T11:19:31.214Z,2.00
2023-05-19T11:22:00.833Z,2.50
2023-05-19T11:24:35.273Z,2.35
2023-05-19T11:27:17.249Z,2.75
2023-05-19T11:29:44.422Z,2.00
2023-05-19T11:32:12.115Z,2.55
2023-05-19T11:34:39.632Z,2.90
2023-05-19T11:37:06.851Z,2.70
2023-05-19T11:39:35.360Z,2.03
2023-05-19T11:42:02.549Z,2.45
2023-05-19T11:44:29.744Z,2.30
2023-05-19T11:46:56.914Z,2.30
2023-05-19T11:49:24.135Z,1.75
2023-05-19T11:51:51.333Z,1.90
2023-05-19T11:54:18.589Z,2.67
2023-05-19T11:56:47.050Z,4.00
2023-05-19T11:59:14.568Z,2.22
2023-05-19T12:01:41.684Z,6.22
2023-05-19T12:04:09.587Z,2.58
2023-05-19T12:06:36.833Z,2.15
2023-05-19T12:09:05.792Z,2.47
2023-05-19T12:11:32.953Z,2.65
2023-05-19T12:14:01.547Z,2.72
2023-05-19T12:16:34.865Z,2.63
2023-05-19T12:19:02.137Z,2.28
2023-05-19T12:21:34.251Z,2.45
2023-05-19T12:24:01.933Z,2.40
2023-05-19T12:26:29.083Z,2.53
2023-05-19T12:28:56.209Z,1.92
2023-05-19T12:31:24.820Z,2.65
2023-05-19T12:33:52.126Z,2.80
2023-05-19T12:36:19.332Z,2.22
2023-05-19T12:38:46.457Z,2.65
2023-05-19T12:41:13.659Z,2.55
2023-05-19T12:43:41.348Z,2.35
2023-05-19T12:46:11.555Z,2.17
2023-05-19T12:48:42.222Z,1.95
2023-05-19T12:51:09.328Z,2.00
2023-05-19T12:53:37.358Z,2.30
2023-05-19T12:56:10.791Z,2.40
2023-05-19T12:58:37.916Z,2.25
2023-05-19T13:01:05.185Z,2.03
2023-05-19T13:03:32.385Z,1.92
2023-05-19T13:06:01.045Z,2.17
2023-05-19T13:08:28.159Z,2.65
2023-05-19T13:10:55.279Z,2.20
2023-05-19T13:13:22.415Z,2.53
2023-05-19T13:15:49.574Z,2.25
2023-05-19T13:18:17.060Z,2.55
2023-05-19T13:20:44.667Z,2.47
2023-05-19T13:23:13.582Z,1.88
2023-05-19T13:25:40.942Z,2.33
2023-05-19T13:28:08.001Z,2.97
2023-05-19T13:30:37.268Z,3.30
2023-05-19T13:33:04.692Z,2.70
2023-05-19T13:35:31.856Z,2.45
2023-05-19T13:37:59.013Z,2.30
2023-05-19T13:40:27.653Z,2.35
2023-05-19T13:42:54.829Z,2.33
2023-05-19T13:45:21.935Z,1.77
2023-05-19T13:47:49.094Z,1.75
2023-05-19T13:50:16.266Z,2.45
2023-05-19T13:52:43.432Z,2.20
2023-05-19T13:55:10.588Z,2.20
2023-05-19T13:57:39.058Z,2.20
2023-05-19T14:00:07.068Z,2.30
2023-05-19T14:02:40.643Z,2.35
2023-05-19T14:05:08.221Z,2.00
2023-05-19T14:07:35.610Z,2.00
2023-05-19T14:10:03.225Z,2.50
2023-05-19T14:12:37.904Z,2.00
2023-05-19T14:15:15.863Z,1.98
2023-05-19T14:17:43.052Z,1.88
2023-05-19T14:20:10.577Z,2.45
2023-05-19T14:22:37.658Z,1.85
2023-05-19T14:25:04.920Z,1.70
2023-05-19T14:27:32.073Z,2.13
2023-05-19T14:29:59.216Z,2.28
2023-05-19T14:32:30.107Z,2.28
2023-05-19T14:34:57.576Z,2.20
2023-05-19T14:37:24.659Z,2.55
2023-05-19T14:39:51.816Z,2.08
2023-05-19T14:42:18.884Z,2.38
2023-05-19T14:44:46.085Z,1.92
2023-05-19T14:47:13.254Z,2.10
2023-05-19T14:49:41.831Z,1.77
2023-05-19T14:52:09.016Z,2.10
2023-05-19T14:54:36.188Z,2.00
2023-05-19T14:57:03.343Z,2.00
2023-05-19T14:59:30.472Z,2.22
2023-05-19T15:01:57.509Z,1.90
2023-05-19T15:04:24.785Z,1.90
2023-05-19T15:07:05.830Z,2.28
2023-05-19T15:09:36.256Z,2.42
2023-05-19T15:12:03.510Z,1.80
2023-05-19T15:14:31.357Z,2.25
2023-05-19T15:16:58.759Z,1.85
2023-05-19T15:19:26.150Z,1.92
2023-05-19T15:21:54.847Z,1.95
2023-05-19T15:24:21.937Z,2.10
2023-05-19T15:26:49.104Z,1.63
2023-05-19T15:29:16.214Z,1.65
2023-05-19T15:31:43.453Z,1.73
2023-05-19T15:34:10.610Z,1.80
2023-05-19T15:36:37.758Z,1.77
2023-05-19T15:39:06.198Z,2.47
2023-05-19T15:41:33.269Z,1.40
2023-05-19T15:44:00.711Z,2.22
2023-05-19T15:46:28.063Z,1.80
2023-05-19T15:48:55.352Z,1.65
2023-05-19T15:51:22.474Z,1.98
2023-05-19T15:53:49.659Z,1.73
2023-05-19T15:56:18.173Z,1.80
2023-05-19T15:58:45.250Z,2.10
2023-05-19T16:01:12.393Z,2.20
2023-05-19T16:03:39.595Z,1.98
2023-05-19T16:06:06.851Z,2.28
2023-05-19T16:08:33.954Z,2.00
2023-05-19T16:11:01.057Z,2.47
2023-05-19T16:13:29.580Z,1.90
2023-05-19T16:15:56.860Z,1.98
2023-05-19T16:18:24.046Z,2.20
2023-05-19T16:20:51.310Z,1.90
2023-05-19T16:23:18.450Z,2.08
2023-05-19T16:25:45.536Z,1.80
2023-05-19T16:28:12.669Z,1.80
2023-05-19T16:30:41.143Z,1.80
2023-05-19T16:33:08.333Z,2.17
2023-05-19T16:35:35.540Z,2.20
2023-05-19T16:38:02.663Z,2.10
2023-05-19T16:40:30.912Z,3.20
2023-05-19T16:42:58.279Z,1.95
2023-05-19T16:45:25.458Z,2.05
2023-05-19T16:47:54.028Z,2.30
2023-05-19T16:50:21.128Z,2.70
2023-05-19T16:52:48.247Z,1.80
2023-05-19T16:55:15.486Z,2.15
2023-05-19T16:57:42.594Z,2.67
2023-05-19T17:00:10.326Z,2.30
2023-05-19T17:02:37.510Z,2.47
2023-05-19T17:05:06.461Z,2.40
2023-05-19T17:07:33.535Z,2.33
2023-05-19T17:10:00.633Z,2.10
2023-05-19T17:12:27.758Z,2.08
2023-05-19T17:14:54.888Z,2.20
2023-05-19T17:17:22.035Z,2.22
2023-05-19T17:19:49.219Z,2.03
2023-05-19T17:22:17.698Z,2.17
2023-05-19T17:24:45.032Z,2.00
2023-05-19T17:27:12.168Z,2.00
2023-05-19T17:29:39.298Z,2.03
2023-05-19T17:32:06.623Z,1.90
2023-05-19T17:34:33.817Z,1.88
2023-05-19T17:37:00.966Z,1.85
2023-05-19T17:39:29.461Z,1.92
2023-05-19T17:41:56.571Z,3.05
2023-05-19T17:44:23.677Z,2.55
2023-05-19T17:46:50.899Z,2.80
2023-05-19T17:49:18.029Z,2.60
2023-05-19T17:51:45.404Z,2.15
2023-05-19T17:54:12.814Z,2.00
2023-05-19T17:56:41.784Z,2.33
2023-05-19T17:59:09.211Z,2.33
2023-05-19T18:01:36.623Z,2.30
2023-05-19T18:04:04.052Z,2.30
2023-05-19T18:06:31.847Z,3.30
2023-05-19T18:09:01.310Z,2.00
2023-05-19T18:11:28.737Z,2.10
2023-05-19T18:13:57.275Z,3.07
2023-05-19T18:16:24.420Z,2.27
2023-05-19T18:18:51.645Z,2.23
2023-05-19T18:21:18.857Z,2.57
2023-05-19T18:23:46.069Z,2.27
2023-05-19T18:26:13.302Z,1.80
2023-05-19T18:28:40.379Z,2.27
2023-05-19T18:31:09.039Z,2.30
2023-05-19T18:33:36.198Z,2.47
2023-05-19T18:36:03.268Z,2.23
2023-05-19T18:38:30.394Z,3.50
2023-05-19T18:40:57.650Z,5.47
2023-05-19T18:43:24.764Z,2.90
2023-05-19T18:45:51.998Z,2.87
2023-05-19T18:48:20.572Z,3.07
2023-05-19T18:50:47.755Z,2.17
2023-05-19T18:53:14.871Z,2.30
2023-05-19T18:55:41.920Z,2.57
2023-05-19T18:58:09.029Z,3.83
2023-05-19T19:00:36.380Z,2.33
2023-05-19T19:03:03.573Z,2.67
2023-05-19T19:05:32.072Z,2.77
2023-05-19T19:07:59.165Z,2.63
2023-05-19T19:10:26.267Z,2.80
2023-05-19T19:12:53.368Z,2.53
2023-05-19T19:15:20.592Z,2.90
2023-05-19T19:17:47.693Z,2.13
2023-05-19T19:20:14.869Z,2.80
2023-05-19T19:22:43.346Z,2.20
2023-05-19T19:25:10.578Z,3.57
2023-05-19T19:27:37.680Z,3.33
2023-05-19T19:30:05.147Z,2.60
2023-05-19T19:32:32.376Z,2.17
2023-05-19T19:34:59.542Z,2.10
2023-05-19T19:37:26.678Z,2.27
2023-05-19T19:39:55.198Z,2.10
2023-05-19T19:42:22.336Z,1.93
2023-05-19T19:44:49.453Z,2.57
2023-05-19T19:47:16.523Z,2.00
2023-05-19T19:49:43.691Z,2.47
2023-05-19T19:52:10.815Z,2.47
2023-05-19T19:54:37.879Z,2.63
2023-05-19T19:57:06.556Z,3.60
2023-05-19T19:59:33.665Z,1.93
2023-05-19T20:02:01.458Z,2.20
2023-05-19T20:04:28.749Z,2.27
2023-05-19T20:06:55.974Z,1.80
2023-05-19T20:09:23.186Z,2.10
2023-05-19T20:11:50.295Z,2.00
2023-05-19T20:14:18.745Z,2.03
2023-05-19T20:16:45.925Z,2.50
2023-05-19T20:19:13.137Z,2.00
2023-05-19T20:21:40.258Z,2.00
2023-05-19T20:24:07.370Z,1.90
2023-05-19T20:26:34.457Z,1.77
2023-05-19T20:29:01.535Z,1.97
2023-05-19T20:31:30.134Z,2.30
2023-05-19T20:33:59.257Z,2.27
2023-05-19T20:36:27.307Z,2.13
2023-05-19T20:38:54.451Z,2.23
2023-05-19T20:41:21.587Z,2.10
2023-05-19T20:43:48.681Z,2.17
2023-05-19T20:46:15.799Z,2.20
2023-05-19T20:48:44.266Z,1.67
2023-05-19T20:51:11.373Z,1.90
2023-05-19T20:53:38.454Z,2.20
2023-05-19T20:56:05.660Z,2.00
2023-05-19T20:58:32.756Z,2.27
2023-05-19T21:00:59.935Z,1.93
2023-05-19T21:03:27.434Z,1.50
2023-05-19T21:05:56.609Z,2.00
2023-05-19T21:08:24.044Z,2.00
2023-05-19T21:10:51.241Z,2.03
2023-05-19T21:13:18.500Z,1.80
2023-05-19T21:15:45.628Z,2.03
2023-05-19T21:18:12.869Z,2.67
2023-05-19T21:20:40.361Z,2.60
2023-05-19T21:23:08.818Z,1.60
2023-05-19T21:25:36.046Z,2.37
2023-05-19T21:28:03.163Z,2.83
2023-05-19T21:30:30.333Z,1.77
2023-05-19T21:32:57.519Z,1.90
2023-05-19T21:35:24.718Z,2.13
2023-05-19T21:37:51.861Z,2.00
2023-05-19T21:40:20.356Z,2.20
2023-05-19T21:42:47.556Z,2.17
2023-05-19T21:45:14.765Z,2.27
2023-05-19T21:47:41.881Z,1.60
2023-05-19T21:50:09.581Z,2.13
2023-05-19T21:52:36.667Z,1.77
2023-05-19T21:55:03.893Z,2.03
2023-05-19T21:57:32.398Z,2.27
2023-05-19T21:59:59.496Z,2.10
2023-05-19T22:02:26.771Z,2.03
2023-05-19T22:04:53.961Z,2.23
2023-05-19T22:07:21.163Z,1.80
2023-05-19T22:09:48.983Z,2.03
2023-05-19T22:12:16.201Z,1.87
2023-05-19T22:14:44.675Z,1.80
2023-05-19T22:17:11.766Z,2.47
2023-05-19T22:19:38.945Z,2.30
2023-05-19T22:22:13.765Z,1.80
2023-05-19T22:24:41.616Z,1.73
2023-05-19T22:27:08.839Z,1.83
2023-05-19T22:29:36.539Z,1.83
2023-05-19T22:32:05.314Z,1.87
2023-05-19T22:34:32.463Z,1.90
2023-05-19T22:36:59.570Z,1.80
2023-05-19T22:39:26.705Z,2.33
2023-05-19T22:41:53.783Z,1.93
2023-05-19T22:44:20.876Z,2.30
2023-05-19T22:46:48.062Z,2.03
2023-05-19T22:49:16.537Z,2.20
2023-05-19T22:51:43.667Z,1.97
2023-05-19T22:54:10.768Z,2.27
2023-05-19T22:56:37.906Z,2.10
2023-05-19T22:59:05.021Z,1.80
2023-05-19T23:01:32.262Z,2.40
2023-05-19T23:03:59.433Z,2.00
2023-05-19T23:06:27.935Z,2.00
2023-05-19T23:09:01.541Z,2.07
2023-05-19T23:11:28.680Z,2.00
2023-05-19T23:13:55.738Z,2.10
2023-05-19T23:16:22.856Z,2.20
2023-05-19T23:18:50.025Z,1.80
2023-05-19T23:21:17.169Z,2.30
2023-05-19T23:23:45.652Z,1.87
2023-05-19T23:26:12.859Z,1.73
2023-05-19T23:28:40.096Z,1.90
2023-05-19T23:31:07.198Z,1.90
2023-05-19T23:33:34.275Z,2.30
2023-05-19T23:36:05.880Z,2.77
2023-05-19T23:38:32.997Z,1.80
2023-05-19T23:41:01.459Z,5.20
2023-05-19T23:43:28.612Z,8.60
2023-05-19T23:45:55.777Z,4.13
2023-05-19T23:48:22.964Z,3.00
2023-05-19T23:50:50.083Z,7.70
2023-05-19T23:53:17.234Z,6.13
2023-05-19T23:55:45.232Z,3.63
2023-05-19T23:58:13.719Z,2.37
